KRDR/RDR METAR and TAF weather

Enter ICAO airport designator
Station Type Date Time Source
KRDR METAR 2022/11/30 23:55 UTC NOAA

KRDR 302355Z 29005KT 10SM CLR M15/M18 A3021 RMK AO2A SLP259 60000 T11501182 11113 21150 52012 $


Station Type Date Time Source
KRDR Decoded METAR 2022/11/30 23:55 UTC NOAA

Grand Forks Air Force Base, ND, United States (KRDR) 47-58N 097-24W 278M
Nov 30, 2022 - 06:55 PM EST / 2022.11.30 2355 UTC
Wind: from the WNW (290 degrees) at 6 MPH (5 KT):0
Visibility: 10 mile(s):0
Sky conditions: clear
Temperature: 5.0 F (-15.0 C)
Windchill: -5 F (-21 C):2
Dew Point: -0.8 F (-18.2 C)
Relative Humidity: 76%
Pressure (altimeter): 30.21 in. Hg (1023 hPa)
Pressure tendency: 0.04 inches (1.2 hPa) higher than three hours ago
ob: KRDR 302355Z 29005KT 10SM CLR M15/M18 A3021 RMK AO2A SLP259 60000 T11501182 11113 21150 52012
cycle: 0

Station Type Date Time Source
KRDR TAF 2022/11/30 20:39 UTC NOAA

TAF
AMD KRDR 302034Z 3020/0124 VRB06KT 9999 SCT023 QNH2967INS TXM10/3021Z TNM16/0102Z

Example: see airport list